sensor_id;sensor_type;location;lat;lon;timestamp;pressure;altitude;pressure_sealevel;temperature;humidity
36788;BME280;22738;45.560;9.434;2023-05-19T00:03:52;100075.53;;;16.74;100.00
36788;BME280;22738;45.560;9.434;2023-05-19T00:10:34;100074.56;;;16.75;100.00
36788;BME280;22738;45.560;9.434;2023-05-19T00:17:16;100077.44;;;16.72;100.00
36788;BME280;22738;45.560;9.434;2023-05-19T00:23:57;100067.38;;;16.68;100.00
36788;BME280;22738;45.560;9.434;2023-05-19T00:30:38;100066.28;;;16.70;100.00
36788;BME280;22738;45.560;9.434;2023-05-19T00:37:19;100069.88;;;16.69;100.00
36788;BME280;22738;45.560;9.434;2023-05-19T00:44:00;100063.22;;;16.65;100.00
36788;BME280;22738;45.560;9.434;2023-05-19T00:50:42;100067.75;;;16.63;100.00
36788;BME280;22738;45.560;9.434;2023-05-19T00:57:24;100065.53;;;16.59;100.00
36788;BME280;22738;45.560;9.434;2023-05-19T01:04:06;100054.94;;;16.60;100.00
36788;BME280;22738;45.560;9.434;2023-05-19T01:10:50;100056.03;;;16.58;100.00
36788;BME280;22738;45.560;9.434;2023-05-19T01:17:40;100049.72;;;16.60;100.00
36788;BME280;22738;45.560;9.434;2023-05-19T01:24:38;100054.03;;;16.50;100.00
36788;BME280;22738;45.560;9.434;2023-05-19T01:31:25;100049.03;;;16.47;100.00
36788;BME280;22738;45.560;9.434;2023-05-19T01:38:09;100050.25;;;16.43;100.00
36788;BME280;22738;45.560;9.434;2023-05-19T01:44:51;100054.81;;;16.41;100.00
36788;BME280;22738;45.560;9.434;2023-05-19T01:51:34;100057.66;;;16.38;100.00
36788;BME280;22738;45.560;9.434;2023-05-19T02:05:19;100057.66;;;16.38;100.00
36788;BME280;22738;45.560;9.434;2023-05-19T02:12:18;100056.72;;;16.39;100.00
36788;BME280;22738;45.560;9.434;2023-05-19T02:19:00;100052.31;;;16.39;100.00
36788;BME280;22738;45.560;9.434;2023-05-19T02:25:41;100051.88;;;16.34;100.00
36788;BME280;22738;45.560;9.434;2023-05-19T02:32:22;100052.25;;;16.30;100.00
36788;BME280;22738;45.560;9.434;2023-05-19T02:39:03;100054.66;;;16.22;100.00
36788;BME280;22738;45.560;9.434;2023-05-19T02:45:44;100064.50;;;16.09;100.00
36788;BME280;22738;45.560;9.434;2023-05-19T02:52:25;100048.81;;;16.09;100.00
36788;BME280;22738;45.560;9.434;2023-05-19T02:59:06;100054.94;;;16.19;100.00
36788;BME280;22738;45.560;9.434;2023-05-19T03:05:47;100049.41;;;16.12;100.00
36788;BME280;22738;45.560;9.434;2023-05-19T03:12:28;100049.34;;;16.03;100.00
36788;BME280;22738;45.560;9.434;2023-05-19T03:19:10;100040.50;;;16.04;100.00
36788;BME280;22738;45.560;9.434;2023-05-19T03:25:51;100044.34;;;16.00;100.00
36788;BME280;22738;45.560;9.434;2023-05-19T03:32:34;100055.41;;;16.03;100.00
36788;BME280;22738;45.560;9.434;2023-05-19T03:39:20;100056.19;;;16.04;100.00
36788;BME280;22738;45.560;9.434;2023-05-19T03:46:02;100064.78;;;16.06;100.00
36788;BME280;22738;45.560;9.434;2023-05-19T03:53:01;100064.25;;;16.12;100.00
36788;BME280;22738;45.560;9.434;2023-05-19T03:59:46;100068.41;;;16.14;100.00
36788;BME280;22738;45.560;9.434;2023-05-19T04:06:27;100067.81;;;16.11;100.00
36788;BME280;22738;45.560;9.434;2023-05-19T04:13:08;100067.19;;;16.18;100.00
36788;BME280;22738;45.560;9.434;2023-05-19T04:19:49;100062.91;;;16.17;100.00
36788;BME280;22738;45.560;9.434;2023-05-19T04:26:32;100068.03;;;16.19;100.00
36788;BME280;22738;45.560;9.434;2023-05-19T04:33:14;100078.03;;;16.14;100.00
36788;BME280;22738;45.560;9.434;2023-05-19T04:39:56;100070.88;;;16.16;100.00
36788;BME280;22738;45.560;9.434;2023-05-19T04:46:39;100081.97;;;16.29;100.00
36788;BME280;22738;45.560;9.434;2023-05-19T04:53:22;100080.06;;;16.31;100.00
36788;BME280;22738;45.560;9.434;2023-05-19T05:00:06;100084.94;;;16.15;100.00
36788;BME280;22738;45.560;9.434;2023-05-19T05:07:03;100095.13;;;16.18;100.00
36788;BME280;22738;45.560;9.434;2023-05-19T05:13:45;100095.13;;;16.18;100.00
36788;BME280;22738;45.560;9.434;2023-05-19T05:20:27;100104.00;;;16.26;100.00
36788;BME280;22738;45.560;9.434;2023-05-19T05:27:09;100101.28;;;16.28;100.00
36788;BME280;22738;45.560;9.434;2023-05-19T05:33:51;100101.44;;;16.36;100.00
36788;BME280;22738;45.560;9.434;2023-05-19T05:40:36;100104.00;;;16.47;100.00
36788;BME280;22738;45.560;9.434;2023-05-19T05:47:20;100110.31;;;16.65;100.00
36788;BME280;22738;45.560;9.434;2023-05-19T05:54:06;100106.50;;;16.69;100.00
36788;BME280;22738;45.560;9.434;2023-05-19T06:00:51;100109.75;;;16.82;100.00
36788;BME280;22738;45.560;9.434;2023-05-19T06:07:35;100113.50;;;16.89;100.00
36788;BME280;22738;45.560;9.434;2023-05-19T06:14:20;100111.84;;;16.88;100.00
36788;BME280;22738;45.560;9.434;2023-05-19T06:21:21;100112.44;;;17.01;100.00
36788;BME280;22738;45.560;9.434;2023-05-19T06:28:02;100114.63;;;16.96;100.00
36788;BME280;22738;45.560;9.434;2023-05-19T06:34:44;100125.53;;;17.01;100.00
36788;BME280;22738;45.560;9.434;2023-05-19T06:41:25;100122.13;;;17.10;100.00
36788;BME280;22738;45.560;9.434;2023-05-19T06:48:06;100123.97;;;16.89;100.00
36788;BME280;22738;45.560;9.434;2023-05-19T06:54:49;100132.00;;;17.28;100.00
36788;BME280;22738;45.560;9.434;2023-05-19T07:01:30;100132.72;;;17.39;100.00
36788;BME280;22738;45.560;9.434;2023-05-19T07:08:13;100127.00;;;17.55;100.00
36788;BME280;22738;45.560;9.434;2023-05-19T07:14:54;100129.50;;;17.66;100.00
36788;BME280;22738;45.560;9.434;2023-05-19T07:21:40;100129.22;;;17.69;100.00
36788;BME280;22738;45.560;9.434;2023-05-19T07:28:22;100119.13;;;17.55;100.00
36788;BME280;22738;45.560;9.434;2023-05-19T07:35:04;100118.47;;;17.91;100.00
36788;BME280;22738;45.560;9.434;2023-05-19T07:41:46;100122.63;;;17.84;100.00
36788;BME280;22738;45.560;9.434;2023-05-19T07:48:32;100129.00;;;18.10;100.00
36788;BME280;22738;45.560;9.434;2023-05-19T07:55:13;100123.16;;;18.55;100.00
36788;BME280;22738;45.560;9.434;2023-05-19T08:01:56;100131.19;;;18.63;100.00
36788;BME280;22738;45.560;9.434;2023-05-19T08:08:37;100119.56;;;18.36;100.00
36788;BME280;22738;45.560;9.434;2023-05-19T08:15:18;100128.31;;;18.46;100.00
36788;BME280;22738;45.560;9.434;2023-05-19T08:21:59;100120.16;;;18.21;100.00
36788;BME280;22738;45.560;9.434;2023-05-19T08:28:42;100128.16;;;18.19;100.00
36788;BME280;22738;45.560;9.434;2023-05-19T08:35:24;100116.84;;;18.19;100.00
36788;BME280;22738;45.560;9.434;2023-05-19T08:42:05;100119.03;;;18.23;100.00
36788;BME280;22738;45.560;9.434;2023-05-19T08:48:48;100113.50;;;18.36;100.00
36788;BME280;22738;45.560;9.434;2023-05-19T08:55:39;100127.47;;;18.56;100.00
36788;BME280;22738;45.560;9.434;2023-05-19T09:02:22;100119.06;;;18.89;100.00
36788;BME280;22738;45.560;9.434;2023-05-19T09:09:03;100128.13;;;19.41;100.00
36788;BME280;22738;45.560;9.434;2023-05-19T09:15:45;100134.53;;;19.83;100.00
36788;BME280;22738;45.560;9.434;2023-05-19T09:22:26;100118.94;;;20.68;100.00
36788;BME280;22738;45.560;9.434;2023-05-19T09:29:12;100120.94;;;20.23;100.00
36788;BME280;22738;45.560;9.434;2023-05-19T09:35:54;100131.66;;;20.12;100.00
36788;BME280;22738;45.560;9.434;2023-05-19T09:42:37;100118.81;;;19.73;100.00
36788;BME280;22738;45.560;9.434;2023-05-19T09:49:25;100115.16;;;19.30;100.00
36788;BME280;22738;45.560;9.434;2023-05-19T09:56:10;100114.81;;;19.42;100.00
36788;BME280;22738;45.560;9.434;2023-05-19T10:02:55;100122.78;;;19.60;100.00
36788;BME280;22738;45.560;9.434;2023-05-19T10:09:38;100121.66;;;19.62;100.00
36788;BME280;22738;45.560;9.434;2023-05-19T10:16:21;100107.50;;;19.09;100.00
36788;BME280;22738;45.560;9.434;2023-05-19T10:23:04;100098.38;;;19.40;100.00
36788;BME280;22738;45.560;9.434;2023-05-19T10:29:48;100108.88;;;19.13;100.00
36788;BME280;22738;45.560;9.434;2023-05-19T10:37:11;100114.81;;;19.42;100.00
36788;BME280;22738;45.560;9.434;2023-05-19T10:51:03;100116.28;;;19.27;100.00
36788;BME280;22738;45.560;9.434;2023-05-19T10:57:54;100112.16;;;19.15;100.00
36788;BME280;22738;45.560;9.434;2023-05-19T11:04:48;100101.38;;;19.18;100.00
36788;BME280;22738;45.560;9.434;2023-05-19T11:18:26;100096.72;;;19.12;100.00
36788;BME280;22738;45.560;9.434;2023-05-19T11:25:10;100102.16;;;19.01;100.00
36788;BME280;22738;45.560;9.434;2023-05-19T11:31:53;100091.84;;;18.90;100.00
36788;BME280;22738;45.560;9.434;2023-05-19T11:38:34;100089.66;;;18.76;100.00
36788;BME280;22738;45.560;9.434;2023-05-19T11:45:15;100083.84;;;18.72;100.00
36788;BME280;22738;45.560;9.434;2023-05-19T11:51:59;100092.16;;;18.77;100.00
36788;BME280;22738;45.560;9.434;2023-05-19T11:58:40;100088.94;;;19.10;100.00
36788;BME280;22738;45.560;9.434;2023-05-19T12:05:25;100080.41;;;19.08;100.00
36788;BME280;22738;45.560;9.434;2023-05-19T12:12:07;100081.03;;;18.93;100.00
36788;BME280;22738;45.560;9.434;2023-05-19T12:18:48;100087.53;;;18.89;100.00
36788;BME280;22738;45.560;9.434;2023-05-19T12:25:30;100088.47;;;18.41;100.00
36788;BME280;22738;45.560;9.434;2023-05-19T12:32:11;100098.59;;;17.89;100.00
36788;BME280;22738;45.560;9.434;2023-05-19T12:38:53;100109.91;;;17.60;100.00
36788;BME280;22738;45.560;9.434;2023-05-19T12:45:35;100101.91;;;17.71;100.00
36788;BME280;22738;45.560;9.434;2023-05-19T12:52:16;100109.63;;;17.73;100.00
36788;BME280;22738;45.560;9.434;2023-05-19T12:58:59;100112.66;;;17.59;100.00
36788;BME280;22738;45.560;9.434;2023-05-19T13:05:42;100109.16;;;17.09;100.00
36788;BME280;22738;45.560;9.434;2023-05-19T13:12:24;100118.22;;;16.95;100.00
36788;BME280;22738;45.560;9.434;2023-05-19T13:19:05;100133.06;;;16.85;100.00
36788;BME280;22738;45.560;9.434;2023-05-19T13:25:46;100137.06;;;16.89;100.00
36788;BME280;22738;45.560;9.434;2023-05-19T13:32:27;100132.16;;;16.75;100.00
36788;BME280;22738;45.560;9.434;2023-05-19T13:39:09;100123.56;;;16.64;100.00
36788;BME280;22738;45.560;9.434;2023-05-19T13:45:50;100126.00;;;16.86;100.00
36788;BME280;22738;45.560;9.434;2023-05-19T13:52:31;100133.56;;;16.79;100.00
36788;BME280;22738;45.560;9.434;2023-05-19T13:59:12;100129.22;;;16.48;100.00
36788;BME280;22738;45.560;9.434;2023-05-19T14:05:53;100123.81;;;16.61;100.00
36788;BME280;22738;45.560;9.434;2023-05-19T14:12:35;100124.44;;;16.74;100.00
36788;BME280;22738;45.560;9.434;2023-05-19T14:19:16;100120.03;;;16.74;100.00
36788;BME280;22738;45.560;9.434;2023-05-19T14:25:57;100114.09;;;16.52;100.00
36788;BME280;22738;45.560;9.434;2023-05-19T14:32:40;100108.94;;;16.61;100.00
36788;BME280;22738;45.560;9.434;2023-05-19T14:39:21;100116.75;;;16.40;100.00
36788;BME280;22738;45.560;9.434;2023-05-19T14:46:03;100102.13;;;16.38;100.00
36788;BME280;22738;45.560;9.434;2023-05-19T14:52:44;100104.75;;;16.38;100.00
36788;BME280;22738;45.560;9.434;2023-05-19T14:59:25;100112.88;;;16.35;100.00
36788;BME280;22738;45.560;9.434;2023-05-19T15:06:09;100108.66;;;16.23;100.00
36788;BME280;22738;45.560;9.434;2023-05-19T15:12:50;100110.25;;;16.14;100.00
36788;BME280;22738;45.560;9.434;2023-05-19T15:19:33;100099.47;;;16.08;100.00
36788;BME280;22738;45.560;9.434;2023-05-19T15:26:14;100095.41;;;16.15;100.00
36788;BME280;22738;45.560;9.434;2023-05-19T15:32:56;100093.41;;;16.07;100.00
36788;BME280;22738;45.560;9.434;2023-05-19T15:39:38;100094.72;;;16.02;100.00
36788;BME280;22738;45.560;9.434;2023-05-19T15:46:20;100088.09;;;15.98;100.00
36788;BME280;22738;45.560;9.434;2023-05-19T15:53:01;100085.50;;;16.18;100.00
36788;BME280;22738;45.560;9.434;2023-05-19T15:59:43;100087.84;;;16.01;100.00
36788;BME280;22738;45.560;9.434;2023-05-19T16:06:24;100076.28;;;15.83;100.00
36788;BME280;22738;45.560;9.434;2023-05-19T16:13:07;100082.09;;;16.07;100.00
36788;BME280;22738;45.560;9.434;2023-05-19T16:19:48;100062.25;;;15.84;100.00
36788;BME280;22738;45.560;9.434;2023-05-19T16:26:29;100054.63;;;15.92;100.00
36788;BME280;22738;45.560;9.434;2023-05-19T16:33:11;100060.13;;;15.78;100.00
36788;BME280;22738;45.560;9.434;2023-05-19T16:39:52;100066.22;;;15.78;100.00
36788;BME280;22738;45.560;9.434;2023-05-19T16:46:33;100055.66;;;15.68;100.00
36788;BME280;22738;45.560;9.434;2023-05-19T16:53:14;100071.50;;;15.56;100.00
36788;BME280;22738;45.560;9.434;2023-05-19T16:59:55;100056.66;;;15.56;100.00
36788;BME280;22738;45.560;9.434;2023-05-19T17:06:39;100063.06;;;15.52;100.00
36788;BME280;22738;45.560;9.434;2023-05-19T17:13:20;100070.44;;;15.47;100.00
36788;BME280;22738;45.560;9.434;2023-05-19T17:20:01;100069.75;;;15.45;100.00
36788;BME280;22738;45.560;9.434;2023-05-19T17:26:43;100068.34;;;15.30;100.00
36788;BME280;22738;45.560;9.434;2023-05-19T17:33:25;100062.13;;;15.31;100.00
36788;BME280;22738;45.560;9.434;2023-05-19T17:40:07;100067.03;;;15.47;100.00
36788;BME280;22738;45.560;9.434;2023-05-19T17:46:48;100078.28;;;15.36;100.00
36788;BME280;22738;45.560;9.434;2023-05-19T17:53:29;100074.63;;;15.28;100.00
36788;BME280;22738;45.560;9.434;2023-05-19T18:00:11;100074.50;;;15.29;100.00
36788;BME280;22738;45.560;9.434;2023-05-19T18:06:53;100078.88;;;15.29;100.00
36788;BME280;22738;45.560;9.434;2023-05-19T18:13:35;100083.97;;;15.41;100.00
36788;BME280;22738;45.560;9.434;2023-05-19T18:20:17;100091.94;;;15.40;100.00
36788;BME280;22738;45.560;9.434;2023-05-19T18:26:58;100097.28;;;15.27;100.00
36788;BME280;22738;45.560;9.434;2023-05-19T18:33:39;100095.66;;;15.26;100.00
36788;BME280;22738;45.560;9.434;2023-05-19T18:40:20;100094.69;;;15.16;100.00
36788;BME280;22738;45.560;9.434;2023-05-19T18:47:02;100091.38;;;15.14;100.00
36788;BME280;22738;45.560;9.434;2023-05-19T18:53:44;100084.97;;;15.07;100.00
36788;BME280;22738;45.560;9.434;2023-05-19T19:00:33;100077.50;;;15.02;100.00
36788;BME280;22738;45.560;9.434;2023-05-19T19:07:17;100095.91;;;15.01;100.00
36788;BME280;22738;45.560;9.434;2023-05-19T19:13:58;100099.69;;;15.08;100.00
36788;BME280;22738;45.560;9.434;2023-05-19T19:20:41;100112.50;;;15.11;100.00
36788;BME280;22738;45.560;9.434;2023-05-19T19:27:24;100121.41;;;15.09;100.00
36788;BME280;22738;45.560;9.434;2023-05-19T19:34:11;100121.75;;;15.04;100.00
36788;BME280;22738;45.560;9.434;2023-05-19T19:40:54;100126.75;;;15.07;100.00
36788;BME280;22738;45.560;9.434;2023-05-19T19:47:36;100123.44;;;15.05;100.00
36788;BME280;22738;45.560;9.434;2023-05-19T19:54:17;100131.75;;;15.10;100.00
36788;BME280;22738;45.560;9.434;2023-05-19T20:01:00;100110.59;;;15.13;100.00
36788;BME280;22738;45.560;9.434;2023-05-19T20:07:41;100105.63;;;15.10;100.00
36788;BME280;22738;45.560;9.434;2023-05-19T20:14:22;100113.47;;;14.99;100.00
36788;BME280;22738;45.560;9.434;2023-05-19T20:21:04;100126.50;;;14.88;100.00
36788;BME280;22738;45.560;9.434;2023-05-19T20:27:46;100127.69;;;14.95;100.00
36788;BME280;22738;45.560;9.434;2023-05-19T20:34:27;100136.72;;;14.91;100.00
36788;BME280;22738;45.560;9.434;2023-05-19T20:41:08;100128.53;;;14.95;100.00
36788;BME280;22738;45.560;9.434;2023-05-19T20:47:49;100139.81;;;14.96;100.00
36788;BME280;22738;45.560;9.434;2023-05-19T20:54:30;100134.81;;;14.93;100.00
36788;BME280;22738;45.560;9.434;2023-05-19T21:01:11;100133.16;;;14.92;100.00
36788;BME280;22738;45.560;9.434;2023-05-19T21:07:52;100150.25;;;14.96;100.00
36788;BME280;22738;45.560;9.434;2023-05-19T21:14:33;100145.38;;;15.02;100.00
36788;BME280;22738;45.560;9.434;2023-05-19T21:21:14;100140.63;;;15.08;100.00
36788;BME280;22738;45.560;9.434;2023-05-19T21:27:56;100140.50;;;15.09;100.00
36788;BME280;22738;45.560;9.434;2023-05-19T21:34:37;100130.28;;;15.06;100.00
36788;BME280;22738;45.560;9.434;2023-05-19T21:41:19;100115.00;;;15.01;100.00
36788;BME280;22738;45.560;9.434;2023-05-19T21:48:00;100132.44;;;15.01;100.00
36788;BME280;22738;45.560;9.434;2023-05-19T21:54:41;100126.97;;;15.04;100.00
36788;BME280;22738;45.560;9.434;2023-05-19T22:01:23;100118.44;;;15.02;100.00
36788;BME280;22738;45.560;9.434;2023-05-19T22:08:04;100125.56;;;15.00;100.00
36788;BME280;22738;45.560;9.434;2023-05-19T22:14:45;100130.56;;;15.03;100.00
36788;BME280;22738;45.560;9.434;2023-05-19T22:21:26;100114.06;;;15.02;100.00
36788;BME280;22738;45.560;9.434;2023-05-19T22:28:07;100113.47;;;14.99;100.00
36788;BME280;22738;45.560;9.434;2023-05-19T22:34:48;100114.53;;;14.96;100.00
36788;BME280;22738;45.560;9.434;2023-05-19T22:41:30;100117.03;;;14.98;100.00
36788;BME280;22738;45.560;9.434;2023-05-19T22:48:11;100112.28;;;15.03;100.00
36788;BME280;22738;45.560;9.434;2023-05-19T22:54:52;100108.00;;;15.02;100.00
36788;BME280;22738;45.560;9.434;2023-05-19T23:01:33;100104.19;;;15.06;100.00
36788;BME280;22738;45.560;9.434;2023-05-19T23:08:14;100094.22;;;15.00;100.00
36788;BME280;22738;45.560;9.434;2023-05-19T23:14:55;100096.63;;;15.03;100.00
36788;BME280;22738;45.560;9.434;2023-05-19T23:21:36;100073.13;;;15.03;100.00
36788;BME280;22738;45.560;9.434;2023-05-19T23:28:17;100056.63;;;15.02;100.00
36788;BME280;22738;45.560;9.434;2023-05-19T23:35:12;100052.47;;;15.00;100.00
36788;BME280;22738;45.560;9.434;2023-05-19T23:41:53;100040.59;;;14.96;100.00
36788;BME280;22738;45.560;9.434;2023-05-19T23:48:34;100039.78;;;14.95;100.00
36788;BME280;22738;45.560;9.434;2023-05-19T23:55:16;100047.03;;;14.92;100.00
